sensor_id;sensor_type;location;lat;lon;timestamp;P1;durP1;ratioP1;P2;durP2;ratioP2
12122;SDS011;6125;59.628;17.852;2023-03-11T00:01:43;5.53;;;3.57;;
12122;SDS011;6125;59.628;17.852;2023-03-11T00:04:10;8.40;;;3.30;;
12122;SDS011;6125;59.628;17.852;2023-03-11T00:06:37;6.47;;;4.20;;
12122;SDS011;6125;59.628;17.852;2023-03-11T00:09:04;5.57;;;3.70;;
12122;SDS011;6125;59.628;17.852;2023-03-11T00:11:31;6.00;;;3.20;;
12122;SDS011;6125;59.628;17.852;2023-03-11T00:13:58;8.43;;;3.87;;
12122;SDS011;6125;59.628;17.852;2023-03-11T00:16:27;5.63;;;3.17;;
12122;SDS011;6125;59.628;17.852;2023-03-11T00:18:54;5.13;;;3.30;;
12122;SDS011;6125;59.628;17.852;2023-03-11T00:21:22;7.27;;;3.77;;
12122;SDS011;6125;59.628;17.852;2023-03-11T00:23:49;8.07;;;3.53;;
12122;SDS011;6125;59.628;17.852;2023-03-11T00:26:16;5.97;;;3.67;;
12122;SDS011;6125;59.628;17.852;2023-03-11T00:28:43;7.57;;;3.90;;
12122;SDS011;6125;59.628;17.852;2023-03-11T00:31:10;7.43;;;3.17;;
12122;SDS011;6125;59.628;17.852;2023-03-11T00:33:39;4.60;;;2.70;;
12122;SDS011;6125;59.628;17.852;2023-03-11T00:36:10;6.33;;;3.60;;
12122;SDS011;6125;59.628;17.852;2023-03-11T00:38:46;7.03;;;2.77;;
12122;SDS011;6125;59.628;17.852;2023-03-11T00:41:13;5.93;;;3.27;;
12122;SDS011;6125;59.628;17.852;2023-03-11T00:43:40;4.67;;;2.60;;
12122;SDS011;6125;59.628;17.852;2023-03-11T00:46:07;6.90;;;3.33;;
12122;SDS011;6125;59.628;17.852;2023-03-11T00:48:34;6.07;;;3.20;;
12122;SDS011;6125;59.628;17.852;2023-03-11T00:51:05;4.60;;;2.50;;
12122;SDS011;6125;59.628;17.852;2023-03-11T00:53:33;4.03;;;2.67;;
12122;SDS011;6125;59.628;17.852;2023-03-11T00:56:04;4.43;;;2.23;;
12122;SDS011;6125;59.628;17.852;2023-03-11T00:58:32;3.00;;;2.10;;
12122;SDS011;6125;59.628;17.852;2023-03-11T01:01:00;3.80;;;2.33;;
12122;SDS011;6125;59.628;17.852;2023-03-11T01:03:27;4.63;;;2.53;;
12122;SDS011;6125;59.628;17.852;2023-03-11T01:05:54;3.87;;;2.37;;
12122;SDS011;6125;59.628;17.852;2023-03-11T01:08:22;3.47;;;2.10;;
12122;SDS011;6125;59.628;17.852;2023-03-11T01:10:51;4.43;;;2.57;;
12122;SDS011;6125;59.628;17.852;2023-03-11T01:13:18;3.90;;;2.47;;
12122;SDS011;6125;59.628;17.852;2023-03-11T01:15:45;4.73;;;2.53;;
12122;SDS011;6125;59.628;17.852;2023-03-11T01:18:12;4.60;;;2.60;;
12122;SDS011;6125;59.628;17.852;2023-03-11T01:20:39;3.80;;;2.10;;
12122;SDS011;6125;59.628;17.852;2023-03-11T01:23:07;3.83;;;2.60;;
12122;SDS011;6125;59.628;17.852;2023-03-11T01:25:36;3.40;;;2.23;;
12122;SDS011;6125;59.628;17.852;2023-03-11T01:28:04;3.00;;;2.03;;
12122;SDS011;6125;59.628;17.852;2023-03-11T01:30:33;3.27;;;1.97;;
12122;SDS011;6125;59.628;17.852;2023-03-11T01:33:01;3.63;;;2.00;;
12122;SDS011;6125;59.628;17.852;2023-03-11T01:35:29;4.57;;;2.60;;
12122;SDS011;6125;59.628;17.852;2023-03-11T01:37:57;6.10;;;3.30;;
12122;SDS011;6125;59.628;17.852;2023-03-11T01:40:26;3.17;;;2.00;;
12122;SDS011;6125;59.628;17.852;2023-03-11T01:42:57;4.63;;;2.13;;
12122;SDS011;6125;59.628;17.852;2023-03-11T01:45:28;3.60;;;2.37;;
12122;SDS011;6125;59.628;17.852;2023-03-11T01:48:04;3.10;;;2.50;;
12122;SDS011;6125;59.628;17.852;2023-03-11T01:50:33;3.30;;;1.80;;
12122;SDS011;6125;59.628;17.852;2023-03-11T01:53:03;4.40;;;2.47;;
12122;SDS011;6125;59.628;17.852;2023-03-11T01:55:30;3.87;;;1.97;;
12122;SDS011;6125;59.628;17.852;2023-03-11T01:57:59;5.13;;;2.73;;
12122;SDS011;6125;59.628;17.852;2023-03-11T02:00:31;4.10;;;2.20;;
12122;SDS011;6125;59.628;17.852;2023-03-11T02:02:58;3.13;;;2.10;;
12122;SDS011;6125;59.628;17.852;2023-03-11T02:05:29;3.53;;;2.03;;
12122;SDS011;6125;59.628;17.852;2023-03-11T02:07:57;5.50;;;1.83;;
12122;SDS011;6125;59.628;17.852;2023-03-11T02:10:25;5.43;;;2.97;;
12122;SDS011;6125;59.628;17.852;2023-03-11T02:12:59;4.70;;;2.70;;
12122;SDS011;6125;59.628;17.852;2023-03-11T02:15:28;3.33;;;2.30;;
12122;SDS011;6125;59.628;17.852;2023-03-11T02:17:56;5.07;;;2.33;;
12122;SDS011;6125;59.628;17.852;2023-03-11T02:20:26;4.70;;;2.60;;
12122;SDS011;6125;59.628;17.852;2023-03-11T02:23:00;4.03;;;2.20;;
12122;SDS011;6125;59.628;17.852;2023-03-11T02:25:30;5.80;;;2.53;;
12122;SDS011;6125;59.628;17.852;2023-03-11T02:28:02;3.80;;;2.60;;
12122;SDS011;6125;59.628;17.852;2023-03-11T02:30:32;4.60;;;2.37;;
12122;SDS011;6125;59.628;17.852;2023-03-11T02:33:01;3.53;;;2.27;;
12122;SDS011;6125;59.628;17.852;2023-03-11T02:35:28;3.97;;;2.10;;
12122;SDS011;6125;59.628;17.852;2023-03-11T02:37:56;3.73;;;2.20;;
12122;SDS011;6125;59.628;17.852;2023-03-11T02:40:34;3.73;;;2.40;;
12122;SDS011;6125;59.628;17.852;2023-03-11T02:43:19;2.63;;;1.77;;
12122;SDS011;6125;59.628;17.852;2023-03-11T02:45:49;3.93;;;2.17;;
12122;SDS011;6125;59.628;17.852;2023-03-11T02:48:16;2.40;;;2.00;;
12122;SDS011;6125;59.628;17.852;2023-03-11T02:50:45;4.43;;;2.40;;
12122;SDS011;6125;59.628;17.852;2023-03-11T02:53:13;4.43;;;2.47;;
12122;SDS011;6125;59.628;17.852;2023-03-11T02:55:40;3.87;;;2.47;;
12122;SDS011;6125;59.628;17.852;2023-03-11T02:58:07;2.63;;;2.03;;
12122;SDS011;6125;59.628;17.852;2023-03-11T03:00:36;3.63;;;2.50;;
12122;SDS011;6125;59.628;17.852;2023-03-11T03:03:03;4.57;;;2.47;;
12122;SDS011;6125;59.628;17.852;2023-03-11T03:05:30;4.60;;;2.63;;
12122;SDS011;6125;59.628;17.852;2023-03-11T03:07:57;7.70;;;2.37;;
12122;SDS011;6125;59.628;17.852;2023-03-11T03:10:25;2.90;;;2.00;;
12122;SDS011;6125;59.628;17.852;2023-03-11T03:12:52;3.87;;;3.00;;
12122;SDS011;6125;59.628;17.852;2023-03-11T03:15:19;3.93;;;2.40;;
12122;SDS011;6125;59.628;17.852;2023-03-11T03:17:47;5.97;;;2.33;;
12122;SDS011;6125;59.628;17.852;2023-03-11T03:20:15;3.47;;;2.13;;
12122;SDS011;6125;59.628;17.852;2023-03-11T03:22:43;5.73;;;2.10;;
12122;SDS011;6125;59.628;17.852;2023-03-11T03:25:10;2.90;;;1.90;;
12122;SDS011;6125;59.628;17.852;2023-03-11T03:27:37;3.27;;;2.13;;
12122;SDS011;6125;59.628;17.852;2023-03-11T03:30:05;4.37;;;1.93;;
12122;SDS011;6125;59.628;17.852;2023-03-11T03:32:33;4.23;;;2.40;;
12122;SDS011;6125;59.628;17.852;2023-03-11T03:35:02;3.03;;;1.70;;
12122;SDS011;6125;59.628;17.852;2023-03-11T03:37:31;2.93;;;2.07;;
12122;SDS011;6125;59.628;17.852;2023-03-11T03:39:59;2.73;;;2.27;;
12122;SDS011;6125;59.628;17.852;2023-03-11T03:42:26;3.60;;;1.87;;
12122;SDS011;6125;59.628;17.852;2023-03-11T03:44:54;4.37;;;2.37;;
12122;SDS011;6125;59.628;17.852;2023-03-11T03:47:21;4.43;;;2.57;;
12122;SDS011;6125;59.628;17.852;2023-03-11T03:49:48;3.07;;;2.00;;
12122;SDS011;6125;59.628;17.852;2023-03-11T03:52:16;4.67;;;2.40;;
12122;SDS011;6125;59.628;17.852;2023-03-11T03:54:49;4.23;;;2.47;;
12122;SDS011;6125;59.628;17.852;2023-03-11T03:57:17;3.97;;;2.20;;
12122;SDS011;6125;59.628;17.852;2023-03-11T03:59:44;2.90;;;2.10;;
12122;SDS011;6125;59.628;17.852;2023-03-11T04:02:11;2.70;;;1.90;;
12122;SDS011;6125;59.628;17.852;2023-03-11T04:04:38;3.80;;;2.10;;
12122;SDS011;6125;59.628;17.852;2023-03-11T04:07:05;3.13;;;2.40;;
12122;SDS011;6125;59.628;17.852;2023-03-11T04:09:34;3.77;;;2.53;;
12122;SDS011;6125;59.628;17.852;2023-03-11T04:12:04;4.37;;;2.43;;
12122;SDS011;6125;59.628;17.852;2023-03-11T04:14:31;3.53;;;2.33;;
12122;SDS011;6125;59.628;17.852;2023-03-11T04:16:58;3.40;;;2.10;;
12122;SDS011;6125;59.628;17.852;2023-03-11T04:19:25;2.97;;;1.93;;
12122;SDS011;6125;59.628;17.852;2023-03-11T04:21:52;5.17;;;1.90;;
12122;SDS011;6125;59.628;17.852;2023-03-11T04:24:19;3.07;;;2.27;;
12122;SDS011;6125;59.628;17.852;2023-03-11T04:26:48;2.80;;;1.97;;
12122;SDS011;6125;59.628;17.852;2023-03-11T04:29:15;2.50;;;1.93;;
12122;SDS011;6125;59.628;17.852;2023-03-11T04:31:42;3.13;;;2.17;;
12122;SDS011;6125;59.628;17.852;2023-03-11T04:34:09;3.07;;;1.97;;
12122;SDS011;6125;59.628;17.852;2023-03-11T04:36:37;3.37;;;2.03;;
12122;SDS011;6125;59.628;17.852;2023-03-11T04:39:04;2.90;;;2.10;;
12122;SDS011;6125;59.628;17.852;2023-03-11T04:41:32;3.63;;;2.00;;
12122;SDS011;6125;59.628;17.852;2023-03-11T04:44:01;3.23;;;2.40;;
12122;SDS011;6125;59.628;17.852;2023-03-11T04:46:28;4.73;;;2.10;;
12122;SDS011;6125;59.628;17.852;2023-03-11T04:48:55;3.17;;;1.83;;
12122;SDS011;6125;59.628;17.852;2023-03-11T04:51:22;2.40;;;1.50;;
12122;SDS011;6125;59.628;17.852;2023-03-11T04:53:49;2.73;;;1.93;;
12122;SDS011;6125;59.628;17.852;2023-03-11T04:56:16;3.03;;;1.70;;
12122;SDS011;6125;59.628;17.852;2023-03-11T04:58:43;2.70;;;1.40;;
12122;SDS011;6125;59.628;17.852;2023-03-11T05:01:11;2.53;;;1.77;;
12122;SDS011;6125;59.628;17.852;2023-03-11T05:03:38;2.20;;;1.77;;
12122;SDS011;6125;59.628;17.852;2023-03-11T05:06:06;3.20;;;1.60;;
12122;SDS011;6125;59.628;17.852;2023-03-11T05:08:33;3.67;;;1.97;;
12122;SDS011;6125;59.628;17.852;2023-03-11T05:11:00;3.43;;;1.80;;
12122;SDS011;6125;59.628;17.852;2023-03-11T05:13:27;2.90;;;1.80;;
12122;SDS011;6125;59.628;17.852;2023-03-11T05:15:54;1.90;;;1.53;;
12122;SDS011;6125;59.628;17.852;2023-03-11T05:18:22;2.27;;;1.60;;
12122;SDS011;6125;59.628;17.852;2023-03-11T05:20:49;2.17;;;1.53;;
12122;SDS011;6125;59.628;17.852;2023-03-11T05:23:17;2.33;;;1.77;;
12122;SDS011;6125;59.628;17.852;2023-03-11T05:25:44;2.07;;;1.50;;
12122;SDS011;6125;59.628;17.852;2023-03-11T05:28:11;2.63;;;1.67;;
12122;SDS011;6125;59.628;17.852;2023-03-11T05:30:38;3.07;;;1.90;;
12122;SDS011;6125;59.628;17.852;2023-03-11T05:33:05;3.00;;;1.73;;
12122;SDS011;6125;59.628;17.852;2023-03-11T05:35:34;1.60;;;1.50;;
12122;SDS011;6125;59.628;17.852;2023-03-11T05:38:01;2.53;;;1.77;;
12122;SDS011;6125;59.628;17.852;2023-03-11T05:40:28;2.70;;;2.00;;
12122;SDS011;6125;59.628;17.852;2023-03-11T05:42:55;6.30;;;2.03;;
12122;SDS011;6125;59.628;17.852;2023-03-11T05:45:23;4.63;;;2.63;;
12122;SDS011;6125;59.628;17.852;2023-03-11T05:47:50;4.00;;;2.83;;
12122;SDS011;6125;59.628;17.852;2023-03-11T05:50:18;3.57;;;2.43;;
12122;SDS011;6125;59.628;17.852;2023-03-11T05:52:46;4.00;;;2.50;;
12122;SDS011;6125;59.628;17.852;2023-03-11T05:55:14;3.57;;;1.90;;
12122;SDS011;6125;59.628;17.852;2023-03-11T05:57:41;2.70;;;2.10;;
12122;SDS011;6125;59.628;17.852;2023-03-11T06:00:08;2.90;;;2.27;;
12122;SDS011;6125;59.628;17.852;2023-03-11T06:02:36;4.20;;;2.10;;
12122;SDS011;6125;59.628;17.852;2023-03-11T06:05:05;3.47;;;2.33;;
12122;SDS011;6125;59.628;17.852;2023-03-11T06:07:33;3.47;;;2.03;;
12122;SDS011;6125;59.628;17.852;2023-03-11T06:10:02;3.30;;;2.20;;
12122;SDS011;6125;59.628;17.852;2023-03-11T06:12:29;2.90;;;1.83;;
12122;SDS011;6125;59.628;17.852;2023-03-11T06:14:58;3.73;;;1.73;;
12122;SDS011;6125;59.628;17.852;2023-03-11T06:17:25;2.93;;;1.97;;
12122;SDS011;6125;59.628;17.852;2023-03-11T06:19:52;2.10;;;1.87;;
12122;SDS011;6125;59.628;17.852;2023-03-11T06:22:19;4.50;;;2.50;;
12122;SDS011;6125;59.628;17.852;2023-03-11T06:24:47;3.47;;;2.37;;
12122;SDS011;6125;59.628;17.852;2023-03-11T06:27:15;4.30;;;2.20;;
12122;SDS011;6125;59.628;17.852;2023-03-11T06:29:42;3.10;;;1.87;;
12122;SDS011;6125;59.628;17.852;2023-03-11T06:32:09;3.93;;;2.17;;
12122;SDS011;6125;59.628;17.852;2023-03-11T06:34:36;3.33;;;2.20;;
12122;SDS011;6125;59.628;17.852;2023-03-11T06:37:04;4.80;;;2.63;;
12122;SDS011;6125;59.628;17.852;2023-03-11T06:39:31;3.87;;;2.13;;
12122;SDS011;6125;59.628;17.852;2023-03-11T06:41:58;4.23;;;2.50;;
12122;SDS011;6125;59.628;17.852;2023-03-11T06:44:26;3.60;;;2.23;;
12122;SDS011;6125;59.628;17.852;2023-03-11T06:46:53;3.47;;;2.53;;
12122;SDS011;6125;59.628;17.852;2023-03-11T06:49:20;3.47;;;2.30;;
12122;SDS011;6125;59.628;17.852;2023-03-11T06:51:47;7.33;;;4.40;;
12122;SDS011;6125;59.628;17.852;2023-03-11T06:54:14;7.90;;;6.40;;
12122;SDS011;6125;59.628;17.852;2023-03-11T06:56:41;8.67;;;5.93;;
12122;SDS011;6125;59.628;17.852;2023-03-11T06:59:08;7.77;;;5.53;;
12122;SDS011;6125;59.628;17.852;2023-03-11T07:01:37;7.73;;;4.40;;
12122;SDS011;6125;59.628;17.852;2023-03-11T07:04:04;6.03;;;4.20;;
12122;SDS011;6125;59.628;17.852;2023-03-11T07:06:31;6.60;;;4.50;;
12122;SDS011;6125;59.628;17.852;2023-03-11T07:08:58;5.47;;;3.60;;
12122;SDS011;6125;59.628;17.852;2023-03-11T07:11:26;4.60;;;3.13;;
12122;SDS011;6125;59.628;17.852;2023-03-11T07:13:53;6.17;;;3.30;;
12122;SDS011;6125;59.628;17.852;2023-03-11T07:16:21;5.00;;;3.60;;
12122;SDS011;6125;59.628;17.852;2023-03-11T07:18:50;5.47;;;3.70;;
12122;SDS011;6125;59.628;17.852;2023-03-11T07:21:20;8.33;;;4.03;;
12122;SDS011;6125;59.628;17.852;2023-03-11T07:23:50;5.73;;;3.90;;
12122;SDS011;6125;59.628;17.852;2023-03-11T07:26:18;8.27;;;4.20;;
12122;SDS011;6125;59.628;17.852;2023-03-11T07:28:45;8.50;;;4.30;;
12122;SDS011;6125;59.628;17.852;2023-03-11T07:31:13;9.73;;;4.80;;
12122;SDS011;6125;59.628;17.852;2023-03-11T07:33:42;10.47;;;5.33;;
12122;SDS011;6125;59.628;17.852;2023-03-11T07:36:11;7.60;;;5.13;;
12122;SDS011;6125;59.628;17.852;2023-03-11T07:38:39;8.30;;;5.00;;
12122;SDS011;6125;59.628;17.852;2023-03-11T07:41:07;6.67;;;4.63;;
12122;SDS011;6125;59.628;17.852;2023-03-11T07:43:35;6.47;;;4.10;;
12122;SDS011;6125;59.628;17.852;2023-03-11T07:46:03;4.33;;;3.33;;
12122;SDS011;6125;59.628;17.852;2023-03-11T07:48:31;5.83;;;3.90;;
12122;SDS011;6125;59.628;17.852;2023-03-11T07:50:59;4.27;;;3.30;;
12122;SDS011;6125;59.628;17.852;2023-03-11T07:53:29;4.77;;;3.30;;
12122;SDS011;6125;59.628;17.852;2023-03-11T07:55:56;6.07;;;2.77;;
12122;SDS011;6125;59.628;17.852;2023-03-11T07:58:24;4.37;;;3.40;;
12122;SDS011;6125;59.628;17.852;2023-03-11T08:00:51;4.90;;;3.40;;
12122;SDS011;6125;59.628;17.852;2023-03-11T08:03:18;4.50;;;3.07;;
12122;SDS011;6125;59.628;17.852;2023-03-11T08:05:46;7.43;;;3.80;;
12122;SDS011;6125;59.628;17.852;2023-03-11T08:08:13;4.10;;;3.20;;
12122;SDS011;6125;59.628;17.852;2023-03-11T08:10:41;4.63;;;3.37;;
12122;SDS011;6125;59.628;17.852;2023-03-11T08:13:08;4.97;;;3.33;;
12122;SDS011;6125;59.628;17.852;2023-03-11T08:15:35;5.37;;;3.87;;
12122;SDS011;6125;59.628;17.852;2023-03-11T08:18:03;6.93;;;4.17;;
12122;SDS011;6125;59.628;17.852;2023-03-11T08:20:30;7.67;;;5.00;;
12122;SDS011;6125;59.628;17.852;2023-03-11T08:22:57;6.33;;;4.30;;
12122;SDS011;6125;59.628;17.852;2023-03-11T08:25:24;5.20;;;3.40;;
12122;SDS011;6125;59.628;17.852;2023-03-11T08:27:53;5.53;;;3.60;;
12122;SDS011;6125;59.628;17.852;2023-03-11T08:30:20;7.43;;;4.73;;
12122;SDS011;6125;59.628;17.852;2023-03-11T08:32:48;7.07;;;3.50;;
12122;SDS011;6125;59.628;17.852;2023-03-11T08:35:15;4.03;;;3.03;;
12122;SDS011;6125;59.628;17.852;2023-03-11T08:37:42;3.00;;;2.37;;
12122;SDS011;6125;59.628;17.852;2023-03-11T08:40:10;3.20;;;2.53;;
12122;SDS011;6125;59.628;17.852;2023-03-11T08:42:38;3.70;;;2.80;;
12122;SDS011;6125;59.628;17.852;2023-03-11T08:45:08;4.33;;;2.70;;
12122;SDS011;6125;59.628;17.852;2023-03-11T08:47:36;3.30;;;2.67;;
12122;SDS011;6125;59.628;17.852;2023-03-11T08:50:04;4.47;;;2.90;;
12122;SDS011;6125;59.628;17.852;2023-03-11T08:52:33;2.83;;;2.50;;
12122;SDS011;6125;59.628;17.852;2023-03-11T08:55:00;3.73;;;2.80;;
12122;SDS011;6125;59.628;17.852;2023-03-11T08:57:29;4.00;;;2.77;;
12122;SDS011;6125;59.628;17.852;2023-03-11T08:59:56;3.33;;;2.90;;
12122;SDS011;6125;59.628;17.852;2023-03-11T09:02:25;3.20;;;2.27;;
12122;SDS011;6125;59.628;17.852;2023-03-11T09:04:52;2.63;;;2.33;;
12122;SDS011;6125;59.628;17.852;2023-03-11T09:07:19;3.10;;;2.80;;
12122;SDS011;6125;59.628;17.852;2023-03-11T09:09:46;5.37;;;3.07;;
12122;SDS011;6125;59.628;17.852;2023-03-11T09:12:14;3.60;;;2.83;;
12122;SDS011;6125;59.628;17.852;2023-03-11T09:14:41;3.40;;;2.63;;
12122;SDS011;6125;59.628;17.852;2023-03-11T09:17:09;3.23;;;2.77;;
12122;SDS011;6125;59.628;17.852;2023-03-11T09:19:39;6.40;;;3.40;;
12122;SDS011;6125;59.628;17.852;2023-03-11T09:22:06;5.50;;;3.77;;
12122;SDS011;6125;59.628;17.852;2023-03-11T09:24:34;3.00;;;2.20;;
12122;SDS011;6125;59.628;17.852;2023-03-11T09:27:01;3.20;;;2.23;;
12122;SDS011;6125;59.628;17.852;2023-03-11T09:29:29;6.90;;;2.70;;
12122;SDS011;6125;59.628;17.852;2023-03-11T09:31:56;2.73;;;2.10;;
12122;SDS011;6125;59.628;17.852;2023-03-11T09:34:23;3.30;;;2.47;;
12122;SDS011;6125;59.628;17.852;2023-03-11T09:36:51;2.83;;;2.03;;
12122;SDS011;6125;59.628;17.852;2023-03-11T09:39:18;3.60;;;2.30;;
12122;SDS011;6125;59.628;17.852;2023-03-11T09:41:47;7.37;;;2.43;;
12122;SDS011;6125;59.628;17.852;2023-03-11T09:44:19;3.70;;;2.77;;
12122;SDS011;6125;59.628;17.852;2023-03-11T09:49:41;5.47;;;2.47;;
12122;SDS011;6125;59.628;17.852;2023-03-11T09:52:32;2.30;;;2.10;;
12122;SDS011;6125;59.628;17.852;2023-03-11T09:55:11;3.23;;;2.60;;
12122;SDS011;6125;59.628;17.852;2023-03-11T09:57:57;2.53;;;2.23;;
12122;SDS011;6125;59.628;17.852;2023-03-11T10:00:29;2.73;;;2.17;;
12122;SDS011;6125;59.628;17.852;2023-03-11T10:02:57;3.47;;;2.47;;
12122;SDS011;6125;59.628;17.852;2023-03-11T10:05:25;2.67;;;2.00;;
12122;SDS011;6125;59.628;17.852;2023-03-11T10:07:57;2.80;;;2.27;;
12122;SDS011;6125;59.628;17.852;2023-03-11T10:10:29;3.03;;;2.27;;
12122;SDS011;6125;59.628;17.852;2023-03-11T10:13:07;2.97;;;2.30;;
12122;SDS011;6125;59.628;17.852;2023-03-11T10:15:42;2.63;;;2.10;;
12122;SDS011;6125;59.628;17.852;2023-03-11T10:21:09;2.90;;;2.00;;
12122;SDS011;6125;59.628;17.852;2023-03-11T10:23:53;4.87;;;1.97;;
12122;SDS011;6125;59.628;17.852;2023-03-11T10:26:27;2.07;;;1.90;;
12122;SDS011;6125;59.628;17.852;2023-03-11T10:28:59;3.50;;;2.00;;
12122;SDS011;6125;59.628;17.852;2023-03-11T10:31:34;3.03;;;2.40;;
12122;SDS011;6125;59.628;17.852;2023-03-11T10:34:09;2.50;;;1.80;;
12122;SDS011;6125;59.628;17.852;2023-03-11T10:36:41;2.33;;;1.83;;
12122;SDS011;6125;59.628;17.852;2023-03-11T10:39:17;2.33;;;1.93;;
12122;SDS011;6125;59.628;17.852;2023-03-11T10:41:46;4.40;;;2.13;;
12122;SDS011;6125;59.628;17.852;2023-03-11T10:44:18;2.20;;;1.90;;
12122;SDS011;6125;59.628;17.852;2023-03-11T10:46:49;3.60;;;2.03;;
12122;SDS011;6125;59.628;17.852;2023-03-11T10:49:16;2.13;;;1.87;;
12122;SDS011;6125;59.628;17.852;2023-03-11T10:51:45;2.13;;;1.80;;
12122;SDS011;6125;59.628;17.852;2023-03-11T10:54:20;2.23;;;1.80;;
12122;SDS011;6125;59.628;17.852;2023-03-11T10:56:53;2.47;;;1.67;;
12122;SDS011;6125;59.628;17.852;2023-03-11T10:59:22;3.23;;;1.80;;
12122;SDS011;6125;59.628;17.852;2023-03-11T11:01:54;1.63;;;1.40;;
12122;SDS011;6125;59.628;17.852;2023-03-11T11:04:27;2.10;;;1.33;;
12122;SDS011;6125;59.628;17.852;2023-03-11T11:06:57;4.60;;;2.07;;
12122;SDS011;6125;59.628;17.852;2023-03-11T11:09:46;2.17;;;1.53;;
12122;SDS011;6125;59.628;17.852;2023-03-11T11:12:14;2.13;;;1.60;;
12122;SDS011;6125;59.628;17.852;2023-03-11T11:14:46;1.30;;;1.20;;
12122;SDS011;6125;59.628;17.852;2023-03-11T11:17:17;2.50;;;1.93;;
12122;SDS011;6125;59.628;17.852;2023-03-11T11:19:48;1.60;;;1.47;;
12122;SDS011;6125;59.628;17.852;2023-03-11T11:22:16;3.17;;;1.80;;
12122;SDS011;6125;59.628;17.852;2023-03-11T11:24:47;4.67;;;1.70;;
12122;SDS011;6125;59.628;17.852;2023-03-11T11:27:18;1.93;;;1.50;;
12122;SDS011;6125;59.628;17.852;2023-03-11T11:29:46;2.50;;;2.17;;
12122;SDS011;6125;59.628;17.852;2023-03-11T11:32:27;5.53;;;2.00;;
12122;SDS011;6125;59.628;17.852;2023-03-11T11:34:58;2.17;;;1.97;;
12122;SDS011;6125;59.628;17.852;2023-03-11T11:37:28;1.77;;;1.50;;
12122;SDS011;6125;59.628;17.852;2023-03-11T11:40:02;2.27;;;1.83;;
12122;SDS011;6125;59.628;17.852;2023-03-11T11:42:35;4.27;;;1.87;;
12122;SDS011;6125;59.628;17.852;2023-03-11T11:45:05;2.90;;;2.03;;
12122;SDS011;6125;59.628;17.852;2023-03-11T11:47:40;2.70;;;1.80;;
12122;SDS011;6125;59.628;17.852;2023-03-11T11:50:12;1.73;;;1.53;;
12122;SDS011;6125;59.628;17.852;2023-03-11T11:52:43;3.13;;;1.63;;
12122;SDS011;6125;59.628;17.852;2023-03-11T11:55:17;2.47;;;1.60;;
12122;SDS011;6125;59.628;17.852;2023-03-11T11:57:46;2.80;;;1.73;;
12122;SDS011;6125;59.628;17.852;2023-03-11T12:00:16;1.87;;;1.67;;
12122;SDS011;6125;59.628;17.852;2023-03-11T12:02:47;2.67;;;1.80;;
12122;SDS011;6125;59.628;17.852;2023-03-11T12:05:28;1.70;;;1.60;;
12122;SDS011;6125;59.628;17.852;2023-03-11T12:08:05;1.90;;;1.40;;
12122;SDS011;6125;59.628;17.852;2023-03-11T12:10:40;1.67;;;1.43;;
12122;SDS011;6125;59.628;17.852;2023-03-11T12:13:25;2.27;;;1.50;;
12122;SDS011;6125;59.628;17.852;2023-03-11T12:16:08;2.33;;;1.77;;
12122;SDS011;6125;59.628;17.852;2023-03-11T12:18:40;3.17;;;1.53;;
12122;SDS011;6125;59.628;17.852;2023-03-11T12:21:16;2.00;;;1.50;;
12122;SDS011;6125;59.628;17.852;2023-03-11T12:23:54;2.30;;;1.60;;
12122;SDS011;6125;59.628;17.852;2023-03-11T12:26:35;1.73;;;1.57;;
12122;SDS011;6125;59.628;17.852;2023-03-11T12:29:06;1.40;;;1.30;;
12122;SDS011;6125;59.628;17.852;2023-03-11T12:31:37;2.13;;;1.30;;
12122;SDS011;6125;59.628;17.852;2023-03-11T12:34:06;1.40;;;1.30;;
12122;SDS011;6125;59.628;17.852;2023-03-11T12:36:37;2.00;;;1.27;;
12122;SDS011;6125;59.628;17.852;2023-03-11T12:39:06;1.33;;;1.23;;
12122;SDS011;6125;59.628;17.852;2023-03-11T12:41:47;1.53;;;1.43;;
12122;SDS011;6125;59.628;17.852;2023-03-11T12:44:21;1.90;;;1.60;;
12122;SDS011;6125;59.628;17.852;2023-03-11T12:49:45;3.73;;;1.33;;
12122;SDS011;6125;59.628;17.852;2023-03-11T12:52:27;1.97;;;1.27;;
12122;SDS011;6125;59.628;17.852;2023-03-11T13:01:11;0.80;;;0.80;;
12122;SDS011;6125;59.628;17.852;2023-03-11T13:04:02;1.13;;;1.00;;
12122;SDS011;6125;59.628;17.852;2023-03-11T13:09:45;0.80;;;0.80;;
12122;SDS011;6125;59.628;17.852;2023-03-11T13:15:25;2.77;;;1.70;;
12122;SDS011;6125;59.628;17.852;2023-03-11T13:17:59;1.37;;;1.10;;
12122;SDS011;6125;59.628;17.852;2023-03-11T13:20:42;4.13;;;1.30;;
12122;SDS011;6125;59.628;17.852;2023-03-11T13:23:24;1.13;;;0.93;;
12122;SDS011;6125;59.628;17.852;2023-03-11T13:26:06;0.80;;;0.80;;
12122;SDS011;6125;59.628;17.852;2023-03-11T13:32:23;1.33;;;1.00;;
12122;SDS011;6125;59.628;17.852;2023-03-11T13:34:57;0.80;;;0.80;;
12122;SDS011;6125;59.628;17.852;2023-03-11T13:37:33;1.10;;;1.00;;
12122;SDS011;6125;59.628;17.852;2023-03-11T13:40:15;0.90;;;0.90;;
12122;SDS011;6125;59.628;17.852;2023-03-11T13:42:54;1.00;;;0.80;;
12122;SDS011;6125;59.628;17.852;2023-03-11T13:45:28;2.30;;;1.00;;
12122;SDS011;6125;59.628;17.852;2023-03-11T13:47:58;1.33;;;1.03;;
12122;SDS011;6125;59.628;17.852;2023-03-11T13:50:28;0.83;;;0.83;;
12122;SDS011;6125;59.628;17.852;2023-03-11T13:52:59;0.90;;;0.90;;
12122;SDS011;6125;59.628;17.852;2023-03-11T13:55:32;0.97;;;0.87;;
12122;SDS011;6125;59.628;17.852;2023-03-11T13:58:12;2.13;;;0.93;;
12122;SDS011;6125;59.628;17.852;2023-03-11T14:00:45;1.60;;;1.20;;
12122;SDS011;6125;59.628;17.852;2023-03-11T14:03:16;2.43;;;0.93;;
12122;SDS011;6125;59.628;17.852;2023-03-11T14:05:47;0.97;;;0.90;;
12122;SDS011;6125;59.628;17.852;2023-03-11T14:08:18;0.80;;;0.73;;
12122;SDS011;6125;59.628;17.852;2023-03-11T14:10:50;0.90;;;0.80;;
12122;SDS011;6125;59.628;17.852;2023-03-11T14:13:19;1.10;;;0.90;;
12122;SDS011;6125;59.628;17.852;2023-03-11T14:15:49;0.73;;;0.73;;
12122;SDS011;6125;59.628;17.852;2023-03-11T14:18:28;1.00;;;0.90;;
12122;SDS011;6125;59.628;17.852;2023-03-11T14:21:00;0.70;;;0.70;;
12122;SDS011;6125;59.628;17.852;2023-03-11T14:23:30;0.90;;;0.70;;
12122;SDS011;6125;59.628;17.852;2023-03-11T14:26:00;2.07;;;1.27;;
12122;SDS011;6125;59.628;17.852;2023-03-11T14:28:31;2.53;;;2.20;;
12122;SDS011;6125;59.628;17.852;2023-03-11T14:31:03;1.00;;;0.90;;
12122;SDS011;6125;59.628;17.852;2023-03-11T14:33:32;4.43;;;1.83;;
12122;SDS011;6125;59.628;17.852;2023-03-11T14:36:05;1.80;;;1.70;;
12122;SDS011;6125;59.628;17.852;2023-03-11T14:38:41;1.50;;;0.90;;
12122;SDS011;6125;59.628;17.852;2023-03-11T14:41:09;1.57;;;1.00;;
12122;SDS011;6125;59.628;17.852;2023-03-11T14:43:41;4.03;;;1.90;;
12122;SDS011;6125;59.628;17.852;2023-03-11T14:46:11;1.17;;;1.00;;
12122;SDS011;6125;59.628;17.852;2023-03-11T14:48:46;0.80;;;0.80;;
12122;SDS011;6125;59.628;17.852;2023-03-11T14:51:15;0.67;;;0.67;;
12122;SDS011;6125;59.628;17.852;2023-03-11T14:53:45;2.77;;;0.97;;
12122;SDS011;6125;59.628;17.852;2023-03-11T14:56:15;1.60;;;1.03;;
12122;SDS011;6125;59.628;17.852;2023-03-11T14:58:46;0.80;;;0.80;;
12122;SDS011;6125;59.628;17.852;2023-03-11T15:01:18;0.80;;;0.80;;
12122;SDS011;6125;59.628;17.852;2023-03-11T15:03:50;0.83;;;0.80;;
12122;SDS011;6125;59.628;17.852;2023-03-11T15:06:21;1.40;;;0.87;;
12122;SDS011;6125;59.628;17.852;2023-03-11T15:08:51;1.90;;;1.00;;
12122;SDS011;6125;59.628;17.852;2023-03-11T15:11:23;1.43;;;1.00;;
12122;SDS011;6125;59.628;17.852;2023-03-11T15:13:52;4.53;;;2.27;;
12122;SDS011;6125;59.628;17.852;2023-03-11T15:16:21;0.80;;;0.80;;
12122;SDS011;6125;59.628;17.852;2023-03-11T15:18:52;1.10;;;1.00;;
12122;SDS011;6125;59.628;17.852;2023-03-11T15:21:20;0.83;;;0.83;;
12122;SDS011;6125;59.628;17.852;2023-03-11T15:23:48;2.10;;;0.97;;
12122;SDS011;6125;59.628;17.852;2023-03-11T15:26:18;1.07;;;0.90;;
12122;SDS011;6125;59.628;17.852;2023-03-11T15:28:57;0.90;;;0.90;;